createdAt,value
2018-04-19T00:02:00.098Z,64.90
2018-04-19T00:04:30.006Z,65.00
2018-04-19T00:06:59.712Z,64.90
2018-04-19T00:09:30.492Z,65.10
2018-04-19T00:12:00.572Z,65.10
2018-04-19T00:14:30.682Z,65.10
2018-04-19T00:17:02.856Z,65.20
2018-04-19T00:19:34.607Z,65.30
2018-04-19T00:22:04.323Z,65.30
2018-04-19T00:24:35.666Z,65.20
2018-04-19T00:27:05.376Z,65.20
2018-04-19T00:29:35.082Z,65.10
2018-04-19T00:32:05.201Z,65.30
2018-04-19T00:34:34.857Z,65.20
2018-04-19T00:37:04.833Z,65.50
2018-04-19T00:39:34.537Z,65.40
2018-04-19T00:42:04.622Z,65.40
2018-04-19T00:44:34.467Z,65.10
2018-04-19T00:47:04.280Z,65.30
2018-04-19T00:49:34.142Z,66.20
2018-04-19T00:52:03.903Z,65.40
2018-04-19T00:54:33.714Z,65.50
2018-04-19T00:57:05.064Z,65.40
2018-04-19T00:59:35.283Z,65.40
2018-04-19T01:02:05.198Z,65.50
2018-04-19T01:04:36.238Z,65.70
2018-04-19T01:07:06.668Z,65.70
2018-04-19T01:09:37.399Z,65.70
2018-04-19T01:12:08.339Z,65.90
2018-04-19T01:14:38.063Z,65.90
2018-04-19T01:17:08.620Z,65.80
2018-04-19T01:19:38.648Z,65.70
2018-04-19T01:22:08.710Z,65.90
2018-04-19T01:24:38.728Z,65.80
2018-04-19T01:27:09.261Z,66.10
2018-04-19T01:29:39.174Z,66.10
2018-04-19T01:32:08.880Z,66.10
2018-04-19T01:34:38.590Z,65.70
2018-04-19T01:37:09.232Z,65.90
2018-04-19T01:39:39.241Z,65.90
2018-04-19T01:42:09.360Z,66.90
2018-04-19T01:44:39.167Z,66.20
2018-04-19T01:47:09.287Z,66.00
2018-04-19T01:49:39.099Z,66.20
2018-04-19T01:52:08.807Z,67.00
2018-04-19T01:54:38.726Z,66.30
2018-04-19T01:57:08.535Z,66.40
2018-04-19T01:59:38.554Z,66.30
2018-04-19T02:02:09.032Z,66.40
2018-04-19T02:04:38.789Z,66.40
2018-04-19T02:07:08.731Z,66.20
2018-04-19T02:09:38.414Z,66.40
2018-04-19T02:12:08.125Z,66.40
2018-04-19T02:14:37.831Z,66.60
2018-04-19T02:17:08.565Z,66.60
2018-04-19T02:19:38.376Z,66.50
2018-04-19T02:22:09.056Z,66.40
2018-04-19T02:24:38.922Z,66.40
2018-04-19T02:27:08.736Z,66.50
2018-04-19T02:29:38.549Z,66.70
2018-04-19T02:32:08.307Z,66.50
2018-04-19T02:34:38.580Z,66.60
2018-04-19T02:37:08.685Z,66.60
2018-04-19T02:39:38.513Z,66.80
2018-04-19T02:42:08.426Z,66.80
2018-04-19T02:44:39.269Z,66.60
2018-04-19T02:47:09.072Z,66.60
2018-04-19T02:49:40.580Z,66.60
2018-04-19T02:52:10.231Z,66.60
2018-04-19T02:54:41.170Z,67.10
2018-04-19T02:57:11.121Z,66.90
2018-04-19T02:59:40.896Z,67.00
2018-04-19T03:02:10.613Z,66.70
2018-04-19T03:04:40.315Z,67.20
2018-04-19T03:07:10.232Z,67.10
2018-04-19T03:09:39.941Z,67.00
2018-04-19T03:12:09.647Z,66.80
2018-04-19T03:14:40.996Z,67.10
2018-04-19T03:17:10.909Z,67.10
2018-04-19T03:19:42.258Z,66.60
2018-04-19T03:22:11.967Z,66.60
2018-04-19T03:24:42.090Z,66.80
2018-04-19T03:27:13.135Z,66.90
2018-04-19T03:29:43.144Z,66.70
2018-04-19T03:32:12.957Z,67.10
2018-04-19T03:34:53.306Z,66.80
2018-04-19T03:37:36.567Z,66.90
2018-04-19T03:40:12.296Z,66.90
2018-04-19T03:42:50.907Z,66.90
2018-04-19T03:45:30.988Z,66.80
2018-04-19T03:48:06.695Z,67.10
2018-04-19T03:50:47.464Z,67.00
2018-04-19T03:53:26.826Z,67.10
2018-04-19T03:55:57.866Z,67.20
2018-04-19T03:58:27.776Z,67.00
2018-04-19T04:00:57.593Z,67.20
2018-04-19T04:03:28.113Z,67.20
2018-04-19T04:05:57.926Z,67.30
2018-04-19T04:08:27.635Z,67.20
2018-04-19T04:10:57.705Z,67.30
2018-04-19T04:13:27.570Z,67.10
2018-04-19T04:15:58.054Z,67.20
2018-04-19T04:20:14.200Z,67.20
2018-04-19T04:23:12.991Z,67.10
2018-04-19T04:25:43.729Z,67.50
2018-04-19T04:28:13.536Z,67.40
2018-04-19T04:30:43.348Z,67.20
2018-04-19T04:33:13.059Z,67.40
2018-04-19T04:35:42.882Z,67.30
2018-04-19T04:38:13.615Z,67.40
2018-04-19T04:40:43.325Z,67.30
2018-04-19T04:43:13.858Z,67.20
2018-04-19T04:45:43.565Z,67.30
2018-04-19T04:48:13.277Z,67.40
2018-04-19T04:50:43.700Z,67.30
2018-04-19T04:53:13.928Z,67.50
2018-04-19T04:55:43.733Z,67.60
2018-04-19T04:58:14.264Z,67.90
2018-04-19T05:00:47.991Z,69.40
2018-04-19T05:03:18.765Z,69.30
2018-04-19T05:05:52.311Z,69.10
2018-04-19T05:08:22.676Z,69.20
2018-04-19T05:10:53.265Z,69.20
2018-04-19T05:13:23.270Z,69.20
2018-04-19T05:15:53.461Z,69.00
2018-04-19T05:18:24.225Z,69.00
2018-04-19T05:20:55.579Z,69.20
2018-04-19T05:23:25.693Z,69.10
2018-04-19T05:25:55.713Z,69.20
2018-04-19T05:28:25.831Z,69.20
2018-04-19T05:30:55.538Z,69.30
2018-04-19T05:33:25.354Z,69.30
2018-04-19T05:35:55.062Z,69.20
2018-04-19T05:38:24.976Z,69.30
2018-04-19T05:40:54.786Z,69.30
2018-04-19T05:43:25.109Z,69.30
2018-04-19T05:45:54.820Z,69.50
2018-04-19T05:48:24.528Z,69.90
2018-04-19T05:50:54.293Z,69.80
2018-04-19T05:53:24.258Z,69.80
2018-04-19T05:55:54.070Z,70.00
2018-04-19T05:58:23.782Z,69.90
2018-04-19T06:00:53.532Z,70.30
2018-04-19T06:03:23.299Z,70.20
2018-04-19T06:05:53.014Z,70.20
2018-04-19T06:08:24.355Z,71.10
2018-04-19T06:10:54.069Z,71.10
2018-04-19T06:13:23.877Z,71.10
2018-04-19T06:15:53.792Z,71.00
2018-04-19T06:18:23.504Z,71.00
2018-04-19T06:20:53.311Z,71.00
2018-04-19T06:23:23.023Z,71.50
2018-04-19T06:25:53.250Z,71.40
2018-04-19T06:28:23.159Z,71.40
2018-04-19T06:30:53.175Z,71.40
2018-04-19T06:33:22.883Z,71.40
2018-04-19T06:35:53.458Z,71.60
2018-04-19T06:38:23.429Z,71.60
2018-04-19T06:40:53.415Z,71.60
2018-04-19T06:43:23.469Z,71.80
2018-04-19T06:45:53.684Z,71.90
2018-04-19T06:48:23.547Z,72.20
2018-04-19T06:50:53.719Z,72.20
2018-04-19T06:53:23.530Z,72.00
2018-04-19T06:55:53.444Z,72.30
2018-04-19T06:58:24.790Z,72.50
2018-04-19T07:00:55.117Z,72.50
2018-04-19T07:03:26.465Z,72.70
2018-04-19T07:05:56.992Z,72.80
2018-04-19T07:08:26.906Z,72.80
2018-04-19T07:10:56.972Z,72.80
2018-04-19T07:13:26.741Z,72.90
2018-04-19T07:15:57.268Z,73.00
2018-04-19T07:18:26.974Z,73.00
2018-04-19T07:20:56.896Z,73.30
2018-04-19T07:23:26.803Z,73.00
2018-04-19T07:25:56.513Z,73.30
2018-04-19T07:28:26.425Z,73.50
2018-04-19T07:30:56.341Z,73.40
2018-04-19T07:33:26.255Z,73.30
2018-04-19T07:35:55.965Z,73.30
2018-04-19T07:38:25.884Z,73.40
2018-04-19T07:40:55.737Z,73.40
2018-04-19T07:43:25.606Z,73.60
2018-04-19T07:45:56.421Z,73.60
2018-04-19T07:48:26.150Z,73.50
2018-04-19T07:50:56.167Z,74.00
2018-04-19T07:53:26.080Z,74.10
2018-04-19T07:55:56.417Z,73.90
2018-04-19T07:58:26.319Z,74.20
2018-04-19T08:00:56.132Z,74.20
2018-04-19T08:03:26.046Z,74.30
2018-04-19T08:05:56.063Z,74.40
2018-04-19T08:08:26.186Z,74.50
2018-04-19T08:10:56.096Z,74.80
2018-04-19T08:13:25.809Z,74.60
2018-04-19T08:16:02.581Z,75.00
2018-04-19T08:18:32.497Z,75.00
2018-04-19T08:21:02.492Z,75.00
2018-04-19T08:23:32.323Z,75.10
2018-04-19T08:26:03.672Z,75.40
2018-04-19T08:28:33.483Z,75.40
2018-04-19T08:31:03.198Z,75.30
2018-04-19T08:33:32.906Z,75.30
2018-04-19T08:36:03.311Z,76.00
2018-04-19T08:38:33.006Z,75.40
2018-04-19T08:41:02.852Z,75.50
2018-04-19T08:43:33.435Z,75.70
2018-04-19T08:46:03.498Z,75.70
2018-04-19T08:48:33.423Z,75.70
2018-04-19T08:51:03.224Z,75.90
2018-04-19T08:53:32.939Z,76.10
2018-04-19T08:56:03.219Z,76.00
2018-04-19T08:58:33.072Z,76.00
2018-04-19T09:01:02.880Z,76.10
2018-04-19T09:03:32.548Z,76.10
2018-04-19T09:06:02.574Z,76.20
2018-04-19T09:08:32.524Z,76.00
2018-04-19T09:11:02.604Z,76.30
2018-04-19T09:13:32.555Z,76.30
2018-04-19T09:16:02.368Z,76.50
2018-04-19T09:18:31.994Z,76.40
2018-04-19T09:21:01.890Z,76.40
2018-04-19T09:23:32.010Z,76.60
2018-04-19T09:26:14.717Z,76.80
2018-04-19T09:28:45.459Z,76.80
2018-04-19T09:31:15.372Z,76.70
2018-04-19T09:33:45.287Z,76.90
2018-04-19T09:36:16.949Z,76.70
2018-04-19T09:38:47.059Z,76.70
2018-04-19T09:41:17.485Z,76.70
2018-04-19T09:43:47.502Z,77.00
2018-04-19T09:46:17.315Z,77.10
2018-04-19T09:48:47.433Z,77.00
2018-04-19T09:51:18.200Z,77.20
2018-04-19T09:53:48.256Z,77.20
2018-04-19T09:56:18.199Z,77.00
2018-04-19T09:58:56.412Z,76.90
2018-04-19T10:01:30.309Z,76.90
2018-04-19T10:04:01.495Z,76.80
2018-04-19T10:06:35.928Z,76.90
2018-04-19T10:09:07.556Z,76.60
2018-04-19T10:11:38.488Z,76.30
2018-04-19T10:14:16.750Z,76.70
2018-04-19T10:16:50.444Z,76.50
2018-04-19T10:19:21.138Z,76.40
2018-04-19T10:21:54.324Z,76.30
2018-04-19T10:24:28.018Z,76.20
2018-04-19T10:26:58.030Z,76.20
2018-04-19T10:29:28.242Z,76.20
2018-04-19T10:31:58.065Z,76.30
2018-04-19T10:34:28.390Z,76.40
2018-04-19T10:36:58.620Z,76.20
2018-04-19T10:39:28.472Z,76.20
2018-04-19T10:41:58.368Z,76.40
2018-04-19T10:44:31.801Z,76.30
2018-04-19T10:47:01.974Z,76.50
2018-04-19T10:49:31.874Z,76.20
2018-04-19T10:52:02.398Z,76.30
2018-04-19T10:54:32.864Z,76.20
2018-04-19T10:57:03.122Z,76.00
2018-04-19T10:59:33.061Z,76.00
2018-04-19T11:02:09.530Z,76.00
2018-04-19T11:04:39.444Z,76.00
2018-04-19T11:07:09.460Z,76.00
2018-04-19T11:09:39.271Z,75.60
2018-04-19T11:12:08.980Z,75.60
2018-04-19T11:14:38.792Z,75.70
2018-04-19T11:17:08.533Z,75.00
2018-04-19T11:19:38.620Z,75.00
2018-04-19T11:22:09.820Z,75.30
2018-04-19T11:24:42.211Z,75.00
2018-04-19T11:27:14.820Z,74.50
2018-04-19T11:29:44.629Z,74.60
2018-04-19T11:32:16.832Z,74.60
2018-04-19T11:34:49.371Z,74.50
2018-04-19T11:37:21.757Z,74.50
2018-04-19T11:39:52.886Z,74.30
2018-04-19T11:42:22.738Z,74.20
2018-04-19T11:44:52.868Z,74.50
2018-04-19T11:47:25.627Z,74.60
2018-04-19T11:50:02.537Z,74.40
2018-04-19T11:52:39.682Z,74.60
2018-04-19T11:55:10.088Z,74.40
2018-04-19T11:57:40.004Z,74.50
2018-04-19T12:00:09.918Z,74.00
2018-04-19T12:02:39.840Z,74.30
2018-04-19T12:05:10.574Z,74.00
2018-04-19T12:07:40.611Z,74.00
2018-04-19T12:10:10.395Z,74.20
2018-04-19T12:12:40.309Z,73.70
2018-04-19T12:15:10.331Z,74.20
2018-04-19T12:17:40.139Z,73.70
2018-04-19T12:20:10.364Z,74.10
2018-04-19T12:22:40.501Z,73.90
2018-04-19T12:25:11.324Z,73.80
2018-04-19T12:27:42.805Z,73.70
2018-04-19T12:30:12.789Z,73.70
2018-04-19T12:32:42.698Z,73.50
2018-04-19T12:35:13.225Z,73.50
2018-04-19T12:37:43.193Z,73.70
2018-04-19T12:40:13.059Z,73.50
2018-04-19T12:42:42.865Z,73.50
2018-04-19T12:45:13.703Z,73.30
2018-04-19T12:47:43.616Z,73.50
2018-04-19T12:50:14.556Z,73.40
2018-04-19T12:52:44.369Z,73.40
2018-04-19T12:55:14.590Z,73.40
2018-04-19T12:57:46.144Z,73.60
2018-04-19T13:00:26.296Z,73.60
2018-04-19T13:03:08.276Z,73.30
2018-04-19T13:05:39.027Z,73.20
2018-04-19T13:08:09.048Z,72.90
2018-04-19T13:10:38.957Z,72.70
2018-04-19T13:13:09.696Z,72.70
2018-04-19T13:15:39.690Z,72.70
2018-04-19T13:18:09.653Z,72.70
2018-04-19T13:20:39.639Z,72.60
2018-04-19T13:23:09.557Z,72.70
2018-04-19T13:25:40.344Z,72.60
2018-04-19T13:28:10.363Z,72.60
2018-04-19T13:30:40.218Z,72.80
2018-04-19T13:33:10.141Z,72.50
2018-04-19T13:35:40.150Z,72.10
2018-04-19T13:38:10.372Z,72.20
2018-04-19T13:40:40.183Z,72.30
2018-04-19T13:43:10.101Z,71.90
2018-04-19T13:45:40.173Z,72.50
2018-04-19T13:48:10.136Z,71.80
2018-04-19T13:50:40.873Z,72.00
2018-04-19T13:53:10.985Z,71.90
2018-04-19T13:55:40.796Z,71.70
2018-04-19T13:58:10.711Z,71.50
2018-04-19T14:00:40.743Z,71.30
2018-04-19T14:03:10.651Z,71.10
2018-04-19T14:05:40.675Z,71.00
2018-04-19T14:08:10.751Z,71.40
2018-04-19T14:10:40.591Z,71.40
2018-04-19T14:13:10.304Z,71.50
2018-04-19T14:15:40.320Z,71.50
2018-04-19T14:18:10.846Z,71.30
2018-04-19T14:20:40.661Z,71.30
2018-04-19T14:23:10.882Z,71.30
2018-04-19T14:25:41.409Z,70.90
2018-04-19T14:28:11.323Z,70.80
2018-04-19T14:30:41.240Z,71.30
2018-04-19T14:33:11.359Z,71.00
2018-04-19T14:35:42.090Z,70.90
2018-04-19T14:38:12.886Z,70.90
2018-04-19T14:40:42.737Z,71.00
2018-04-19T14:43:12.607Z,70.60
2018-04-19T14:45:42.613Z,70.50
2018-04-19T14:48:12.686Z,69.60
2018-04-19T14:50:42.550Z,70.00
2018-04-19T14:53:12.595Z,69.70
2018-04-19T14:55:42.633Z,70.90
2018-04-19T14:58:12.548Z,70.00
2018-04-19T15:00:42.468Z,70.30
2018-04-19T15:03:12.278Z,70.40
2018-04-19T15:05:42.262Z,70.20
2018-04-19T15:08:12.717Z,70.00
2018-04-19T15:10:42.640Z,69.20
2018-04-19T15:13:12.967Z,69.60
2018-04-19T15:15:43.034Z,69.70
2018-04-19T15:18:12.898Z,70.30
2018-04-19T15:20:42.777Z,70.20
2018-04-19T15:23:12.826Z,70.30
2018-04-19T15:25:42.632Z,70.10
2018-04-19T15:28:13.364Z,69.90
2018-04-19T15:30:43.074Z,70.00
2018-04-19T15:33:12.886Z,70.10
2018-04-19T15:35:43.109Z,69.70
2018-04-19T15:38:12.923Z,69.80
2018-04-19T15:40:42.731Z,70.00
2018-04-19T15:43:12.762Z,69.40
2018-04-19T15:45:42.850Z,69.90
2018-04-19T15:48:12.890Z,69.20
2018-04-19T15:50:42.963Z,69.90
2018-04-19T15:53:13.122Z,70.00
2018-04-19T15:55:43.037Z,69.90
2018-04-19T15:58:13.980Z,69.20
2018-04-19T16:00:44.094Z,69.10
2018-04-19T16:03:14.098Z,69.20
2018-04-19T16:05:44.029Z,68.60
2018-04-19T16:08:13.940Z,68.60
2018-04-19T16:10:43.855Z,68.20
2018-04-19T16:13:13.769Z,69.50
2018-04-19T16:15:43.887Z,68.80
2018-04-19T16:18:13.896Z,68.30
2018-04-19T16:20:43.989Z,68.30
2018-04-19T16:23:14.246Z,68.40
2018-04-19T16:25:44.130Z,68.30
2018-04-19T16:28:14.211Z,68.20
2018-04-19T16:30:44.296Z,67.90
2018-04-19T16:33:14.269Z,68.60
2018-04-19T16:35:44.329Z,68.50
2018-04-19T16:38:15.266Z,68.70
2018-04-19T16:40:45.490Z,68.50
2018-04-19T16:43:15.505Z,67.90
2018-04-19T16:45:45.619Z,68.10
2018-04-19T16:48:15.640Z,68.60
2018-04-19T16:50:46.709Z,68.70
2018-04-19T16:53:16.903Z,68.40
2018-04-19T16:55:46.953Z,68.40
2018-04-19T16:58:17.661Z,68.40
2018-04-19T17:00:47.676Z,68.60
2018-04-19T17:03:17.584Z,68.50
2018-04-19T17:05:48.240Z,68.70
2018-04-19T17:08:18.129Z,68.60
2018-04-19T17:10:49.501Z,68.60
2018-04-19T17:13:19.603Z,68.60
2018-04-19T17:15:50.337Z,68.60
2018-04-19T17:18:20.246Z,68.40
2018-04-19T17:20:51.185Z,68.30
2018-04-19T17:23:21.068Z,68.30
2018-04-19T17:25:50.982Z,68.40
2018-04-19T17:28:20.926Z,68.50
2018-04-19T17:30:50.897Z,68.60
2018-04-19T17:33:20.858Z,69.20
2018-04-19T17:35:50.983Z,68.50
2018-04-19T17:38:21.612Z,68.30
2018-04-19T17:40:54.058Z,68.40
2018-04-19T17:43:24.102Z,68.40
2018-04-19T17:45:55.657Z,68.30
2018-04-19T17:48:25.772Z,68.30
2018-04-19T17:50:55.794Z,68.30
2018-04-19T17:53:26.115Z,68.50
2018-04-19T17:55:57.050Z,68.60
2018-04-19T17:58:27.182Z,68.50
2018-04-19T18:00:57.084Z,68.80
2018-04-19T18:03:26.896Z,68.20
2018-04-19T18:05:56.709Z,68.90
2018-04-19T18:08:26.624Z,69.10
2018-04-19T18:10:56.868Z,69.00
2018-04-19T18:13:26.836Z,68.80
2018-04-19T18:15:56.780Z,68.50
2018-04-19T18:18:26.487Z,68.30
2018-04-19T18:20:56.501Z,68.50
2018-04-19T18:23:26.569Z,68.60
2018-04-19T18:25:56.740Z,68.60
2018-04-19T18:28:26.703Z,68.20
2018-04-19T18:30:57.183Z,68.20
2018-04-19T18:33:27.512Z,68.30
2018-04-19T18:35:57.609Z,68.50
2018-04-19T18:38:27.746Z,68.50
2018-04-19T18:40:57.562Z,68.90
2018-04-19T18:43:27.575Z,68.40
2018-04-19T18:45:57.390Z,68.40
2018-04-19T18:48:27.405Z,68.50
2018-04-19T18:50:57.219Z,68.00
2018-04-19T18:53:27.163Z,68.20
2018-04-19T18:55:57.354Z,68.10
2018-04-19T18:58:27.170Z,68.70
2018-04-19T19:00:57.492Z,69.00
2018-04-19T19:03:27.719Z,68.90
2018-04-19T19:05:57.768Z,68.70
2018-04-19T19:08:27.754Z,68.60
2018-04-19T19:10:57.657Z,68.50
2018-04-19T19:13:27.573Z,68.10
2018-04-19T19:16:06.254Z,68.60
2018-04-19T19:20:43.584Z,68.20
2018-04-19T19:23:13.406Z,68.10
2018-04-19T19:25:43.211Z,68.40
2018-04-19T19:28:13.134Z,68.20
2018-04-19T19:30:43.435Z,68.10
2018-04-19T19:33:13.423Z,68.00
2018-04-19T19:35:43.286Z,68.00
2018-04-19T19:38:13.200Z,68.00
2018-04-19T19:40:43.437Z,68.00
2018-04-19T19:43:13.338Z,67.80
2018-04-19T19:45:43.054Z,67.10
2018-04-19T19:48:12.960Z,67.60
2018-04-19T19:50:42.896Z,67.70
2018-04-19T19:53:12.794Z,67.70
2018-04-19T19:55:42.764Z,67.60
2018-04-19T19:58:12.668Z,67.60
2018-04-19T20:00:42.944Z,67.60
2018-04-19T20:03:12.959Z,67.60
2018-04-19T20:05:43.089Z,67.20
2018-04-19T20:08:13.074Z,67.10
2018-04-19T20:10:43.185Z,67.40
2018-04-19T20:13:13.129Z,67.50
2018-04-19T20:15:43.048Z,67.30
2018-04-19T20:18:13.062Z,67.30
2018-04-19T20:20:42.975Z,67.20
2018-04-19T20:23:12.792Z,67.30
2018-04-19T20:25:43.111Z,67.40
2018-04-19T20:28:13.944Z,67.20
2018-04-19T20:30:44.144Z,67.10
2018-04-19T20:33:15.310Z,67.00
2018-04-19T20:35:45.483Z,67.20
2018-04-19T20:38:15.248Z,67.10
2018-04-19T20:40:45.472Z,67.20
2018-04-19T20:43:16.094Z,66.50
2018-04-19T20:45:47.141Z,67.20
2018-04-19T20:48:17.047Z,66.90
2018-04-19T20:50:46.859Z,66.70
2018-04-19T20:53:16.571Z,66.70
2018-04-19T20:55:46.338Z,66.70
2018-04-19T20:58:16.101Z,66.80
2018-04-19T21:00:46.063Z,66.70
2018-04-19T21:03:15.993Z,66.50
2018-04-19T21:05:46.121Z,66.70
2018-04-19T21:08:20.692Z,66.60
2018-04-19T21:10:52.189Z,66.70
2018-04-19T21:13:30.768Z,66.60
2018-04-19T21:16:01.188Z,66.50
2018-04-19T21:18:32.208Z,66.60
2018-04-19T21:21:02.528Z,66.60
2018-04-19T21:23:32.503Z,66.60
2018-04-19T21:26:02.250Z,66.60
2018-04-19T21:28:31.960Z,66.40
2018-04-19T21:31:01.722Z,66.50
2018-04-19T21:33:31.431Z,66.30
2018-04-19T21:36:02.215Z,66.40
2018-04-19T21:38:32.233Z,66.30
2018-04-19T21:41:02.148Z,66.30
2018-04-19T21:43:33.504Z,66.10
2018-04-19T21:46:03.920Z,66.20
2018-04-19T21:48:33.734Z,66.20
2018-04-19T21:51:04.059Z,66.30
2018-04-19T21:53:36.399Z,65.90
2018-04-19T21:56:07.102Z,66.10
2018-04-19T21:58:37.349Z,66.00
2018-04-19T22:01:09.144Z,65.90
2018-04-19T22:03:39.222Z,65.90
2018-04-19T22:06:09.390Z,65.60
2018-04-19T22:08:40.829Z,66.30
2018-04-19T22:11:10.854Z,65.70
2018-04-19T22:13:41.684Z,65.70
2018-04-19T22:16:11.703Z,66.20
2018-04-19T22:18:41.410Z,65.50
2018-04-19T22:21:11.321Z,65.50
2018-04-19T22:23:41.237Z,65.50
2018-04-19T22:26:10.947Z,65.20
2018-04-19T22:28:40.604Z,65.20
2018-04-19T22:31:10.373Z,65.30
2018-04-19T22:33:40.971Z,65.50
2018-04-19T22:36:10.809Z,65.50
2018-04-19T22:38:41.549Z,65.40
2018-04-19T22:41:13.096Z,65.40
2018-04-19T22:43:43.014Z,65.40
2018-04-19T22:46:13.030Z,65.50
2018-04-19T22:48:43.043Z,65.50
2018-04-19T22:51:12.958Z,65.40
2018-04-19T22:53:43.101Z,65.40
2018-04-19T22:56:13.915Z,65.50
2018-04-19T22:58:44.238Z,65.30
2018-04-19T23:01:14.049Z,65.30
2018-04-19T23:03:43.966Z,65.30
2018-04-19T23:06:14.020Z,65.30
2018-04-19T23:08:43.895Z,65.10
2018-04-19T23:11:15.247Z,65.20
2018-04-19T23:13:45.980Z,65.20
2018-04-19T23:16:15.789Z,65.20
2018-04-19T23:18:45.703Z,65.10
2018-04-19T23:21:15.719Z,65.20
2018-04-19T23:23:45.635Z,65.10
2018-04-19T23:26:15.703Z,65.30
2018-04-19T23:28:45.470Z,65.10
2018-04-19T23:31:15.430Z,65.00
2018-04-19T23:33:45.602Z,64.80
2018-04-19T23:36:15.513Z,65.20
2018-04-19T23:38:46.865Z,65.10
2018-04-19T23:41:17.389Z,65.00
2018-04-19T23:43:47.268Z,64.90
2018-04-19T23:46:17.732Z,65.00
2018-04-19T23:48:47.440Z,65.10
2018-04-19T23:51:17.151Z,65.20
2018-04-19T23:53:47.883Z,65.20
2018-04-19T23:56:17.593Z,65.10
2018-04-19T23:58:47.507Z,65.10
